Weather History for Stanton, MN

Change the Weather History Date:

Friday, April 26, 2013

  Actual Average (KLVN) Record (KLVN)
Temperature  
Mean Temperature 58 °F -  
Max Temperature 72 °F 66 °F 88 °F (1962)
Min Temperature 44 °F 42 °F 21 °F (2008)
Degree Days  
Heating Degree Days 7    
Growing Degree Days 8 (Base 50)    
Moisture  
Dew Point 39 °F    
Average Humidity 52    
Maximum Humidity 83    
Minimum Humidity 30    
Precipitation  
Precipitation 0.00 in - - ()
Sea Level Pressure  
Sea Level Pressure 30.03 in    
Wind  
Wind Speed 11 mph (SSW)    
Max Wind Speed 22 mph    
Max Gust Speed 31 mph    
Visibility 10 miles    
Events Rain    
Averages and records for this station are not official NWS values.
T = Trace of Precipitation, MM = Missing Value Source: NWS Daily Summary

Daily Weather History Graph

Daily Weather History Graph

Search for Another Location

Airport:

Trip Planner

Search our weather history database for the weather conditions in past years. The results will help you decide how hot, cold, wet, or windy it might be!

Date:

Astronomy

Apr. 26, 2013 Rise Set
Actual Time 6:09 AM CDT 8:10 PM CDT
Civil Twilight 5:38 AM CDT 8:42 PM CDT
Nautical Twilight 4:59 AM CDT 9:21 PM CDT
Astronomical Twilight 4:17 AM CDT 10:03 PM CDT
Moon 9:37 PM CDT (4/26) 6:35 AM CDT (4/26)
Length of Visible Light 15h 03m
Length of Day
14h 00m
Full, 99% of the Moon is Illuminated
Apr 26
Full
May 2
Last Quarter
May 9
New
May 17
First Quarter
May 24
Full

Hourly Weather History & Observations

Time (CDT) Temp. Windchill Dew Point Humidity Pressure Visibility Wind Dir Wind Speed Gust Speed Precip Events Conditions
12:13 AM 45.5 °F 40.3 °F 28.6 °F 52% 30.07 in 10.0 mi SE 10.4 mph 17.3 mph N/A   Clear
12:33 AM 45.5 °F 39.9 °F 28.8 °F 52% 30.08 in 10.0 mi SE 11.5 mph 16.1 mph N/A   Clear
12:53 AM 46.0 °F 39.0 °F 30.4 °F 54% 30.08 in 10.0 mi South 17.3 mph - N/A Rain Light Rain
1:13 AM 44.6 °F 39.7 °F 33.3 °F 64% 30.07 in 10.0 mi SSE 9.2 mph - N/A Rain Rain
1:33 AM 46.6 °F - 32.2 °F 57% 30.05 in 10.0 mi SE 15.0 mph 21.9 mph N/A   Overcast
2:14 AM 46.4 °F 41.1 °F 32.2 °F 58% 30.02 in 10.0 mi SSE 11.5 mph 18.4 mph N/A   Scattered Clouds
2:33 AM 47.3 °F - 32.5 °F 57% 30.00 in 10.0 mi SSE 18.4 mph 27.6 mph N/A   Scattered Clouds
2:53 AM 47.1 °F - 32.9 °F 58% 30.00 in 10.0 mi SSE 17.3 mph 31.1 mph N/A   Clear
3:14 AM 46.9 °F - 33.4 °F 59% 30.00 in 10.0 mi South 19.6 mph 23.0 mph N/A   Scattered Clouds
3:33 AM 47.1 °F - 33.6 °F 59% 30.00 in 10.0 mi South 16.1 mph 23.0 mph N/A   Mostly Cloudy
3:53 AM 46.8 °F - 34.0 °F 61% 30.00 in 10.0 mi South 15.0 mph 20.7 mph N/A   Mostly Cloudy
4:12 AM 46.6 °F - 34.3 °F 62% 30.00 in 10.0 mi South 12.7 mph 17.3 mph N/A   Mostly Cloudy
4:33 AM 46.6 °F - 34.9 °F 64% 29.99 in 10.0 mi South 11.5 mph - N/A   Overcast
4:53 AM 46.8 °F - 35.6 °F 65% 30.00 in 10.0 mi South 9.2 mph - N/A   Overcast
5:13 AM 46.9 °F - 36.5 °F 67% 30.00 in 10.0 mi South 6.9 mph - N/A   Overcast
5:34 AM 47.5 °F - 36.7 °F 66% 29.99 in 10.0 mi SSE 8.1 mph - N/A   Overcast
5:53 AM 47.3 °F - 36.9 °F 67% 29.99 in 10.0 mi South 5.8 mph - N/A   Overcast
6:13 AM 46.9 °F - 37.4 °F 69% 29.99 in 10.0 mi South 6.9 mph - N/A   Overcast
6:33 AM 47.3 °F - 37.4 °F 68% 29.99 in 10.0 mi South 10.4 mph - N/A   Mostly Cloudy
6:53 AM 48.2 °F - 37.4 °F 66% 29.98 in 10.0 mi South 10.4 mph - N/A   Scattered Clouds
7:13 AM 48.2 °F - 37.4 °F 66% 29.98 in 10.0 mi South 10.4 mph 16.1 mph N/A   Clear
7:33 AM 48.4 °F - 37.8 °F 67% 29.99 in 10.0 mi South 11.5 mph 16.1 mph N/A   Clear
7:53 AM 49.5 °F - 38.3 °F 65% 29.99 in 10.0 mi South 13.8 mph 19.6 mph N/A   Clear
8:13 AM 50.9 °F - 38.5 °F 62% 29.99 in 10.0 mi South 12.7 mph 21.9 mph N/A   Clear
8:33 AM 52.0 °F - 39.4 °F 62% 30.00 in 10.0 mi South 10.4 mph 18.4 mph N/A   Clear
8:53 AM 54.0 °F - 40.6 °F 61% 30.00 in 10.0 mi SSW 9.2 mph - N/A   Clear
9:13 AM 56.5 °F - 40.6 °F 55% 30.00 in 10.0 mi SSW 12.7 mph 20.7 mph N/A   Clear
9:33 AM 57.9 °F - 41.4 °F 54% 30.00 in 10.0 mi SSW 16.1 mph 21.9 mph N/A   Clear
9:53 AM 59.9 °F - 40.8 °F 49% 30.00 in 10.0 mi SW 18.4 mph - N/A   Clear
10:13 AM 61.0 °F - 41.2 °F 48% 30.00 in 10.0 mi SSW 21.9 mph 25.3 mph N/A   Clear
10:33 AM 61.7 °F - 40.5 °F 46% 30.01 in 10.0 mi SW 20.7 mph - N/A   Clear
10:53 AM 62.6 °F - 41.0 °F 45% 30.01 in 10.0 mi SW 17.3 mph 21.9 mph N/A   Clear
11:13 AM 63.0 °F - 40.5 °F 44% 30.02 in 10.0 mi SW 16.1 mph 21.9 mph N/A   Clear
11:33 AM 63.9 °F - 39.4 °F 41% 30.02 in 10.0 mi WSW 13.8 mph 20.7 mph N/A   Clear
11:53 AM 63.7 °F - 40.3 °F 42% 30.02 in 10.0 mi SW 15.0 mph - N/A   Clear
12:13 PM 64.6 °F - 41.0 °F 42% 30.03 in 10.0 mi WSW 12.7 mph - N/A   Clear
12:33 PM 65.3 °F - 40.6 °F 40% 30.03 in 10.0 mi WSW 13.8 mph 17.3 mph N/A   Clear
12:53 PM 65.7 °F - 41.4 °F 41% 30.03 in 10.0 mi SW 13.8 mph 20.7 mph N/A   Clear
1:13 PM 66.9 °F - 41.5 °F 40% 30.02 in 10.0 mi SW 13.8 mph 18.4 mph N/A   Clear
1:33 PM 67.6 °F - 41.7 °F 39% 30.02 in 10.0 mi SW 15.0 mph 18.4 mph N/A   Clear
1:53 PM 68.2 °F - 43.0 °F 40% 30.02 in 10.0 mi SW 12.7 mph 18.4 mph N/A   Clear
2:13 PM 69.1 °F - 38.3 °F 32% 30.02 in 10.0 mi WSW 11.5 mph - N/A   Clear
2:33 PM 69.6 °F - 39.0 °F 33% 30.02 in 10.0 mi WSW 12.7 mph 17.3 mph N/A   Clear
2:53 PM 69.8 °F - 40.6 °F 35% 30.02 in 10.0 mi West 10.4 mph 16.1 mph N/A   Clear
3:13 PM 70.9 °F - 39.7 °F 32% 30.02 in 10.0 mi WSW 9.2 mph - N/A   Clear
3:33 PM 71.1 °F - 38.3 °F 30% 30.02 in 10.0 mi WSW 11.5 mph - N/A   Clear
3:53 PM 71.6 °F - 39.7 °F 31% 30.02 in 10.0 mi West 10.4 mph - N/A   Clear
4:13 PM 71.6 °F - 39.4 °F 31% 30.02 in 10.0 mi West 8.1 mph 18.4 mph N/A   Clear
4:33 PM 72.3 °F - 39.6 °F 30% 30.02 in 10.0 mi West 10.4 mph - N/A   Clear
4:53 PM 71.6 °F - 40.5 °F 32% 30.02 in 10.0 mi West 9.2 mph - N/A   Clear
5:13 PM 71.1 °F - 40.6 °F 33% 30.02 in 10.0 mi WNW 10.4 mph 17.3 mph N/A   Clear
5:33 PM 70.9 °F - 40.5 °F 33% 30.03 in 10.0 mi WNW 10.4 mph - N/A   Clear
5:53 PM 70.3 °F - 39.9 °F 33% 30.03 in 10.0 mi West 10.4 mph - N/A   Clear
6:13 PM 69.8 °F - 40.3 °F 34% 30.04 in 10.0 mi WNW 8.1 mph - N/A   Clear
6:33 PM 69.4 °F - 41.7 °F 37% 30.04 in 10.0 mi NW 8.1 mph - N/A   Clear
6:53 PM 68.4 °F - 41.5 °F 38% 30.05 in 10.0 mi WNW 6.9 mph - N/A   Clear
7:13 PM 67.1 °F - 43.9 °F 43% 30.05 in 10.0 mi WNW 5.8 mph - N/A   Clear
7:33 PM 65.3 °F - 43.3 °F 45% 30.06 in 10.0 mi NW 4.6 mph - N/A   Clear
7:53 PM 64.4 °F - 41.0 °F 42% 30.06 in 10.0 mi West 4.6 mph - N/A   Clear
8:13 PM 62.6 °F - 42.3 °F 47% 30.07 in 10.0 mi WNW 4.6 mph - N/A   Clear
8:33 PM 61.2 °F - 42.1 °F 50% 30.07 in 10.0 mi Calm Calm - N/A   Clear
8:53 PM 58.6 °F - 45.1 °F 61% 30.08 in 10.0 mi Calm Calm - N/A   Clear
9:13 PM 58.5 °F - 42.4 °F 55% 30.09 in 10.0 mi South 3.5 mph - N/A   Clear
9:33 PM 55.8 °F - 43.3 °F 63% 30.10 in 10.0 mi SSW 4.6 mph - N/A   Clear
9:53 PM 54.0 °F - 43.0 °F 66% 30.10 in 10.0 mi South 5.8 mph - N/A   Clear
10:13 PM 51.1 °F - 43.5 °F 75% 30.11 in 10.0 mi South 3.5 mph - N/A   Clear
10:33 PM 51.1 °F - 42.8 °F 73% 30.11 in 10.0 mi SSW 4.6 mph - N/A   Clear
10:53 PM 49.1 °F - 42.4 °F 78% 30.11 in 10.0 mi Calm Calm - N/A   Clear
11:13 PM 48.2 °F - 43.2 °F 83% 30.12 in 10.0 mi SSW 5.8 mph - N/A   Clear
11:33 PM 48.0 °F - 42.6 °F 82% 30.13 in 10.0 mi Calm Calm - N/A   Clear
11:53 PM 48.0 °F - 41.9 °F 79% 30.13 in 10.0 mi Calm Calm - N/A   Clear